createdAt,value
2017-07-09T00:00:28.341Z,26.46
2017-07-09T00:01:08.795Z,26.59
2017-07-09T00:01:49.258Z,26.53
2017-07-09T00:02:29.715Z,26.61
2017-07-09T00:03:10.175Z,26.59
2017-07-09T00:03:50.636Z,26.59
2017-07-09T00:04:31.096Z,26.49
2017-07-09T00:05:11.552Z,26.53
2017-07-09T00:05:52.006Z,26.53
2017-07-09T00:06:32.472Z,26.53
2017-07-09T00:07:12.924Z,26.61
2017-07-09T00:07:53.375Z,26.56
2017-07-09T00:08:33.836Z,26.6
2017-07-09T00:09:14.289Z,26.59
2017-07-09T00:09:54.748Z,26.6
2017-07-09T00:10:35.204Z,26.59
2017-07-09T00:11:15.655Z,26.52
2017-07-09T00:11:56.113Z,26.49
2017-07-09T00:12:36.576Z,26.56
2017-07-09T00:13:17.038Z,26.52
2017-07-09T00:13:57.506Z,26.48
2017-07-09T00:14:37.960Z,26.53
2017-07-09T00:15:18.421Z,26.52
2017-07-09T00:15:58.907Z,26.53
2017-07-09T00:16:39.368Z,26.51
2017-07-09T00:17:19.826Z,26.51
2017-07-09T00:18:00.285Z,26.52
2017-07-09T00:18:40.741Z,26.52
2017-07-09T00:19:21.198Z,26.51
2017-07-09T00:20:01.658Z,26.52
2017-07-09T00:20:42.117Z,26.46
2017-07-09T00:21:22.579Z,26.49
2017-07-09T00:22:03.030Z,26.48
2017-07-09T00:22:43.482Z,26.48
2017-07-09T00:23:23.944Z,26.52
2017-07-09T00:24:04.403Z,26.44
2017-07-09T00:24:44.861Z,26.51
2017-07-09T00:25:25.327Z,26.51
2017-07-09T00:26:05.779Z,26.49
2017-07-09T00:26:46.232Z,26.45
2017-07-09T00:27:26.689Z,26.45
2017-07-09T00:28:07.129Z,26.48
2017-07-09T00:28:47.599Z,26.44
2017-07-09T00:29:28.060Z,26.46
2017-07-09T00:30:08.520Z,26.37
2017-07-09T00:30:48.979Z,26.48
2017-07-09T00:31:29.436Z,26.44
2017-07-09T00:32:09.903Z,26.46
2017-07-09T00:32:50.361Z,26.42
2017-07-09T00:33:30.810Z,26.48
2017-07-09T00:34:11.272Z,26.45
2017-07-09T00:34:51.729Z,26.45
2017-07-09T00:35:32.191Z,26.49
2017-07-09T00:36:12.644Z,26.46
2017-07-09T00:36:53.105Z,26.45
2017-07-09T00:37:33.566Z,26.45
2017-07-09T00:38:14.024Z,26.46
2017-07-09T00:38:54.468Z,26.44
2017-07-09T00:39:34.929Z,26.37
2017-07-09T00:40:15.385Z,26.42
2017-07-09T00:40:55.844Z,26.45
2017-07-09T00:41:36.294Z,26.39
2017-07-09T00:42:16.752Z,26.37
2017-07-09T00:42:57.208Z,26.42
2017-07-09T00:43:37.670Z,26.39
2017-07-09T00:44:18.131Z,26.42
2017-07-09T00:44:58.588Z,26.33
2017-07-09T00:45:39.039Z,26.36
2017-07-09T00:46:19.499Z,26.33
2017-07-09T00:46:59.956Z,26.37
2017-07-09T00:47:40.412Z,26.41
2017-07-09T00:48:20.868Z,26.34
2017-07-09T00:49:01.318Z,26.33
2017-07-09T00:49:41.773Z,26.37
2017-07-09T00:50:22.232Z,26.37
2017-07-09T00:51:02.684Z,26.34
2017-07-09T00:51:43.142Z,26.39
2017-07-09T00:52:23.600Z,26.36
2017-07-09T00:53:04.060Z,26.34
2017-07-09T00:53:44.527Z,26.3
2017-07-09T00:54:24.987Z,26.34
2017-07-09T00:55:05.446Z,26.3
2017-07-09T00:55:45.904Z,26.31
2017-07-09T00:56:26.356Z,26.29
2017-07-09T00:57:06.815Z,26.36
2017-07-09T00:57:47.266Z,26.37
2017-07-09T00:58:27.726Z,26.33
2017-07-09T00:59:08.182Z,26.27
2017-07-09T00:59:48.635Z,26.36
2017-07-09T01:00:29.090Z,26.36
2017-07-09T01:01:09.550Z,26.29
2017-07-09T01:01:50.007Z,26.39
2017-07-09T01:02:30.465Z,26.29
2017-07-09T01:03:10.927Z,26.36
2017-07-09T01:03:51.383Z,26.33
2017-07-09T01:04:31.841Z,26.37
2017-07-09T01:05:12.298Z,26.3
2017-07-09T01:05:52.751Z,26.29
2017-07-09T01:06:33.205Z,26.34
2017-07-09T01:07:13.665Z,26.33
2017-07-09T01:07:54.126Z,26.29
2017-07-09T01:08:34.581Z,26.33
2017-07-09T01:09:15.043Z,26.31
2017-07-09T01:09:55.495Z,26.34
2017-07-09T01:10:35.967Z,26.29
2017-07-09T01:11:16.429Z,26.3
2017-07-09T01:11:56.887Z,26.31
2017-07-09T01:12:37.337Z,26.29
2017-07-09T01:13:17.797Z,26.33
2017-07-09T01:13:58.286Z,26.31
2017-07-09T01:14:38.746Z,26.31
2017-07-09T01:15:19.197Z,26.3
2017-07-09T01:15:59.653Z,26.3
2017-07-09T01:16:40.112Z,26.31
2017-07-09T01:17:20.572Z,26.3
2017-07-09T01:18:01.026Z,26.29
2017-07-09T01:18:41.485Z,26.26
2017-07-09T01:19:21.946Z,26.31
2017-07-09T01:20:02.409Z,26.3
2017-07-09T01:20:42.874Z,26.29
2017-07-09T01:21:23.349Z,26.29
2017-07-09T01:22:03.806Z,26.23
2017-07-09T01:22:44.264Z,26.23
2017-07-09T01:23:24.723Z,26.23
2017-07-09T01:24:05.184Z,26.29
2017-07-09T01:24:45.646Z,26.29
2017-07-09T01:25:26.099Z,26.24
2017-07-09T01:26:06.556Z,26.24
2017-07-09T01:26:47.018Z,26.26
2017-07-09T01:27:27.481Z,26.23
2017-07-09T01:28:07.932Z,26.24
2017-07-09T01:28:48.441Z,26.23
2017-07-09T01:29:28.899Z,26.26
2017-07-09T01:30:09.356Z,26.29
2017-07-09T01:30:49.816Z,26.24
2017-07-09T01:31:30.265Z,26.1
2017-07-09T01:32:10.716Z,26.16
2017-07-09T01:32:51.171Z,26.26
2017-07-09T01:33:31.624Z,26.26
2017-07-09T01:34:12.078Z,26.26
2017-07-09T01:34:52.537Z,26.11
2017-07-09T01:35:32.995Z,26.18
2017-07-09T01:36:13.459Z,26.13
2017-07-09T01:36:53.952Z,26.27
2017-07-09T01:37:34.406Z,26.15
2017-07-09T01:38:14.874Z,26.13
2017-07-09T01:38:55.369Z,26.18
2017-07-09T01:39:35.832Z,26.11
2017-07-09T01:40:16.244Z,26.19
2017-07-09T01:40:56.702Z,26.18
2017-07-09T01:41:37.157Z,26.15
2017-07-09T01:42:17.611Z,26.15
2017-07-09T01:42:58.066Z,26.16
2017-07-09T01:43:38.517Z,26.23
2017-07-09T01:44:18.977Z,26.15
2017-07-09T01:44:59.419Z,26.15
2017-07-09T01:45:39.880Z,26.13
2017-07-09T01:46:20.337Z,26.15
2017-07-09T01:47:00.789Z,26.11
2017-07-09T01:47:41.262Z,26.13
2017-07-09T01:48:21.714Z,26.13
2017-07-09T01:49:02.176Z,26.13
2017-07-09T01:49:42.636Z,26.11
2017-07-09T01:50:23.099Z,26.16
2017-07-09T01:51:03.556Z,26.13
2017-07-09T01:51:44.014Z,26.13
2017-07-09T01:52:24.472Z,26.08
2017-07-09T01:53:04.928Z,26.16
2017-07-09T01:53:45.387Z,26.11
2017-07-09T01:54:25.849Z,26.11
2017-07-09T01:55:06.314Z,26.1
2017-07-09T01:55:46.770Z,26.15
2017-07-09T01:56:27.233Z,26.18
2017-07-09T01:57:07.695Z,26.08
2017-07-09T01:57:48.157Z,26.07
2017-07-09T01:58:28.606Z,26.13
2017-07-09T01:59:09.061Z,26.03
2017-07-09T01:59:49.523Z,26.13
2017-07-09T02:00:29.984Z,26.13
2017-07-09T02:01:10.438Z,26.06
2017-07-09T02:01:50.899Z,26.06
2017-07-09T02:02:31.359Z,26.06
2017-07-09T02:03:11.814Z,26.07
2017-07-09T02:03:52.273Z,26.06
2017-07-09T02:04:32.736Z,26.11
2017-07-09T02:05:13.198Z,25.99
2017-07-09T02:05:53.655Z,26.11
2017-07-09T02:06:34.109Z,26.04
2017-07-09T02:07:14.661Z,25.98
2017-07-09T02:07:55.122Z,26.07
2017-07-09T02:08:35.583Z,26.04
2017-07-09T02:09:16.048Z,26.03
2017-07-09T02:09:56.498Z,26.13
2017-07-09T02:10:36.962Z,26.11
2017-07-09T02:11:17.416Z,26.01
2017-07-09T02:11:57.869Z,26.07
2017-07-09T02:12:38.321Z,26.15
2017-07-09T02:13:18.770Z,26.04
2017-07-09T02:13:59.238Z,26.11
2017-07-09T02:14:39.697Z,26.01
2017-07-09T02:15:20.145Z,26.06
2017-07-09T02:16:00.607Z,26.11
2017-07-09T02:16:41.068Z,26.13
2017-07-09T02:17:21.527Z,26.13
2017-07-09T02:18:01.983Z,26.11
2017-07-09T02:18:42.439Z,25.99
2017-07-09T02:19:22.906Z,25.98
2017-07-09T02:20:03.350Z,26.03
2017-07-09T02:20:43.821Z,26.04
2017-07-09T02:21:24.280Z,26.1
2017-07-09T02:22:04.739Z,25.98
2017-07-09T02:22:45.201Z,26.16
2017-07-09T02:23:25.660Z,26.1
2017-07-09T02:24:06.122Z,26.03
2017-07-09T02:24:46.815Z,25.99
2017-07-09T02:25:27.272Z,26.03
2017-07-09T02:26:07.725Z,25.98
2017-07-09T02:26:48.185Z,26.08
2017-07-09T02:27:28.645Z,25.99
2017-07-09T02:28:09.105Z,25.99
2017-07-09T02:28:49.560Z,26.1
2017-07-09T02:29:30.020Z,26.1
2017-07-09T02:30:10.476Z,26.07
2017-07-09T02:30:50.940Z,26.07
2017-07-09T02:31:31.375Z,26.1
2017-07-09T02:32:11.842Z,26.07
2017-07-09T02:32:52.296Z,26.1
2017-07-09T02:33:32.757Z,26.01
2017-07-09T02:34:13.214Z,26.07
2017-07-09T02:34:53.665Z,25.98
2017-07-09T02:35:34.122Z,26.08
2017-07-09T02:36:14.598Z,25.99
2017-07-09T02:36:55.050Z,25.98
2017-07-09T02:37:35.509Z,25.99
2017-07-09T02:38:15.967Z,26.03
2017-07-09T02:38:56.424Z,26.1
2017-07-09T02:39:36.883Z,26.1
2017-07-09T02:40:17.345Z,26.07
2017-07-09T02:40:57.815Z,25.96
2017-07-09T02:41:38.276Z,26.07
2017-07-09T02:42:18.732Z,25.99
2017-07-09T02:42:59.191Z,25.95
2017-07-09T02:43:39.654Z,26.01
2017-07-09T02:44:20.104Z,26.01
2017-07-09T02:45:00.567Z,25.98
2017-07-09T02:45:41.021Z,26.06
2017-07-09T02:46:21.530Z,25.98
2017-07-09T02:47:01.945Z,25.95
2017-07-09T02:47:42.405Z,25.99
2017-07-09T02:48:22.871Z,25.98
2017-07-09T02:49:03.325Z,26.03
2017-07-09T02:49:43.799Z,25.99
2017-07-09T02:50:24.257Z,25.91
2017-07-09T02:51:04.715Z,26.01
2017-07-09T02:51:45.174Z,26.03
2017-07-09T02:52:25.638Z,25.98
2017-07-09T02:53:06.172Z,25.95
2017-07-09T02:53:46.634Z,25.99
2017-07-09T02:54:27.087Z,25.96
2017-07-09T02:55:07.553Z,25.99
2017-07-09T02:55:48.009Z,25.99
2017-07-09T02:56:28.468Z,25.98
2017-07-09T02:57:08.924Z,26.06
2017-07-09T02:57:49.382Z,25.99
2017-07-09T02:58:29.834Z,25.98
2017-07-09T02:59:10.291Z,25.99
2017-07-09T02:59:50.750Z,25.95
2017-07-09T03:00:31.207Z,26.03
2017-07-09T03:01:11.768Z,25.95
2017-07-09T03:01:52.229Z,26.01
2017-07-09T03:02:32.687Z,25.93
2017-07-09T03:03:13.144Z,25.98
2017-07-09T03:03:53.606Z,25.95
2017-07-09T03:04:34.054Z,25.93
2017-07-09T03:05:14.512Z,25.86
2017-07-09T03:05:54.970Z,25.95
2017-07-09T03:06:35.434Z,25.93
2017-07-09T03:07:15.892Z,25.88
2017-07-09T03:07:56.349Z,25.92
2017-07-09T03:08:36.805Z,25.93
2017-07-09T03:09:17.262Z,25.99
2017-07-09T03:09:57.724Z,25.91
2017-07-09T03:10:38.182Z,25.88
2017-07-09T03:11:18.635Z,25.96
2017-07-09T03:11:59.109Z,25.98
2017-07-09T03:12:39.571Z,25.85
2017-07-09T03:13:20.038Z,25.89
2017-07-09T03:14:00.501Z,25.81
2017-07-09T03:14:40.962Z,25.95
2017-07-09T03:15:21.423Z,25.93
2017-07-09T03:16:01.880Z,25.81
2017-07-09T03:16:42.340Z,25.88
2017-07-09T03:17:22.798Z,25.85
2017-07-09T03:18:03.259Z,25.85
2017-07-09T03:18:43.716Z,25.95
2017-07-09T03:19:24.175Z,25.88
2017-07-09T03:20:04.632Z,25.89
2017-07-09T03:20:45.092Z,25.91
2017-07-09T03:21:25.570Z,25.81
2017-07-09T03:22:06.020Z,25.86
2017-07-09T03:22:46.475Z,25.81
2017-07-09T03:23:26.939Z,25.86
2017-07-09T03:24:07.403Z,25.81
2017-07-09T03:24:47.861Z,25.83
2017-07-09T03:25:28.318Z,25.85
2017-07-09T03:26:08.769Z,25.8
2017-07-09T03:26:49.229Z,25.78
2017-07-09T03:27:29.740Z,25.76
2017-07-09T03:28:10.148Z,25.8
2017-07-09T03:28:50.603Z,25.85
2017-07-09T03:29:31.064Z,25.77
2017-07-09T03:30:11.522Z,25.7
2017-07-09T03:30:51.979Z,25.83
2017-07-09T03:31:32.440Z,25.76
2017-07-09T03:32:12.906Z,25.81
2017-07-09T03:32:53.365Z,25.71
2017-07-09T03:33:33.821Z,25.76
2017-07-09T03:34:14.274Z,25.78
2017-07-09T03:34:54.780Z,25.77
2017-07-09T03:35:35.185Z,25.71
2017-07-09T03:36:15.643Z,25.74
2017-07-09T03:36:56.111Z,25.78
2017-07-09T03:37:36.558Z,25.74
2017-07-09T03:38:17.019Z,25.8
2017-07-09T03:38:57.481Z,25.73
2017-07-09T03:39:37.943Z,25.77
2017-07-09T03:40:18.405Z,25.77
2017-07-09T03:40:58.862Z,25.74
2017-07-09T03:41:39.319Z,25.74
2017-07-09T03:42:19.780Z,25.73
2017-07-09T03:43:00.236Z,25.73
2017-07-09T03:43:40.693Z,25.71
2017-07-09T03:44:21.154Z,25.76
2017-07-09T03:45:01.608Z,25.78
2017-07-09T03:45:42.069Z,25.77
2017-07-09T03:46:22.529Z,25.78
2017-07-09T03:47:02.989Z,25.78
2017-07-09T03:47:43.449Z,25.71
2017-07-09T03:48:23.912Z,25.74
2017-07-09T03:49:04.373Z,25.76
2017-07-09T03:49:44.834Z,25.74
2017-07-09T03:50:25.294Z,25.73
2017-07-09T03:51:05.765Z,25.74
2017-07-09T03:51:46.220Z,25.71
2017-07-09T03:52:26.674Z,25.74
2017-07-09T03:53:07.158Z,25.77
2017-07-09T03:53:47.616Z,25.73
2017-07-09T03:54:28.096Z,25.77
2017-07-09T03:55:08.556Z,25.76
2017-07-09T03:55:48.997Z,25.76
2017-07-09T03:56:29.457Z,25.74
2017-07-09T03:57:09.919Z,25.76
2017-07-09T03:57:50.380Z,25.81
2017-07-09T03:58:30.833Z,25.76
2017-07-09T03:59:11.290Z,25.7
2017-07-09T03:59:51.752Z,25.73
2017-07-09T04:00:32.213Z,25.74
2017-07-09T04:01:12.675Z,25.76
2017-07-09T04:01:53.127Z,25.71
2017-07-09T04:02:33.582Z,25.74
2017-07-09T04:03:14.043Z,25.77
2017-07-09T04:03:54.498Z,25.83
2017-07-09T04:04:34.958Z,25.76
2017-07-09T04:05:15.422Z,25.71
2017-07-09T04:05:55.890Z,25.77
2017-07-09T04:06:36.316Z,25.71
2017-07-09T04:07:16.774Z,25.77
2017-07-09T04:07:57.237Z,25.78
2017-07-09T04:08:37.692Z,25.77
2017-07-09T04:09:18.154Z,25.76
2017-07-09T04:09:58.629Z,25.7
2017-07-09T04:10:39.099Z,25.76
2017-07-09T04:11:19.561Z,25.78
2017-07-09T04:12:00.017Z,25.7
2017-07-09T04:12:40.482Z,25.73
2017-07-09T04:13:20.943Z,25.8
2017-07-09T04:14:01.393Z,25.77
2017-07-09T04:14:41.857Z,25.78
2017-07-09T04:15:22.328Z,25.77
2017-07-09T04:16:02.784Z,25.78
2017-07-09T04:16:43.298Z,25.78
2017-07-09T04:17:23.751Z,25.71
2017-07-09T04:18:04.204Z,25.78
2017-07-09T04:18:44.658Z,25.77
2017-07-09T04:19:25.116Z,25.8
2017-07-09T04:20:05.565Z,25.71
2017-07-09T04:20:46.023Z,25.77
2017-07-09T04:21:26.462Z,25.76
2017-07-09T04:22:06.924Z,25.76
2017-07-09T04:22:47.384Z,25.76
2017-07-09T04:23:27.851Z,25.73
2017-07-09T04:24:08.304Z,25.78
2017-07-09T04:24:48.763Z,25.8
2017-07-09T04:25:29.223Z,25.78
2017-07-09T04:26:09.728Z,25.8
2017-07-09T04:26:50.125Z,25.76
2017-07-09T04:27:30.686Z,25.76
2017-07-09T04:28:11.153Z,25.81
2017-07-09T04:28:51.612Z,25.77
2017-07-09T04:29:32.072Z,25.73
2017-07-09T04:30:12.529Z,25.74
2017-07-09T04:30:52.983Z,25.76
2017-07-09T04:31:33.442Z,25.85
2017-07-09T04:32:13.897Z,25.74
2017-07-09T04:32:54.359Z,25.74
2017-07-09T04:33:34.817Z,25.76
2017-07-09T04:34:15.269Z,25.78
2017-07-09T04:34:55.776Z,25.74
2017-07-09T04:35:36.239Z,25.81
2017-07-09T04:36:16.701Z,25.76
2017-07-09T04:36:57.161Z,25.8
2017-07-09T04:37:37.618Z,25.77
2017-07-09T04:38:18.077Z,25.8
2017-07-09T04:38:58.540Z,25.81
2017-07-09T04:39:39.049Z,25.81
2017-07-09T04:40:19.454Z,25.77
2017-07-09T04:40:59.912Z,25.85
2017-07-09T04:41:40.369Z,25.77
2017-07-09T04:42:20.823Z,25.76
2017-07-09T04:43:01.278Z,25.85
2017-07-09T04:43:41.744Z,25.74
2017-07-09T04:44:22.200Z,25.86
2017-07-09T04:45:02.653Z,25.83
2017-07-09T04:45:43.106Z,25.83
2017-07-09T04:46:23.566Z,25.8
2017-07-09T04:47:04.028Z,25.73
2017-07-09T04:47:44.491Z,25.8
2017-07-09T04:48:24.947Z,25.8
2017-07-09T04:49:05.400Z,25.86
2017-07-09T04:49:45.858Z,25.77
2017-07-09T04:50:26.320Z,25.77
2017-07-09T04:51:06.783Z,25.85
2017-07-09T04:51:47.231Z,25.81
2017-07-09T04:52:27.683Z,25.83
2017-07-09T04:53:08.142Z,25.8
2017-07-09T04:53:48.599Z,25.83
2017-07-09T04:54:29.060Z,25.83
2017-07-09T04:55:09.519Z,25.83
2017-07-09T04:55:49.980Z,25.81
2017-07-09T04:56:30.439Z,25.85
2017-07-09T04:57:10.891Z,25.86
2017-07-09T04:57:51.369Z,25.8
2017-07-09T04:58:31.826Z,25.86
2017-07-09T04:59:12.283Z,25.89
2017-07-09T04:59:52.741Z,25.89
2017-07-09T05:00:33.198Z,25.86
2017-07-09T05:01:13.658Z,25.89
2017-07-09T05:01:54.119Z,25.91
2017-07-09T05:02:34.576Z,25.88
2017-07-09T05:03:15.045Z,25.86
2017-07-09T05:03:55.498Z,25.86
2017-07-09T05:04:35.960Z,25.88
2017-07-09T05:05:16.417Z,25.96
2017-07-09T05:05:56.877Z,25.86
2017-07-09T05:06:37.331Z,25.89
2017-07-09T05:07:17.789Z,25.95
2017-07-09T05:07:58.250Z,25.89
2017-07-09T05:08:38.706Z,25.93
2017-07-09T05:09:19.154Z,25.89
2017-07-09T05:09:59.613Z,25.85
2017-07-09T05:10:40.069Z,25.91
2017-07-09T05:11:20.534Z,25.92
2017-07-09T05:12:00.993Z,25.83
2017-07-09T05:12:41.441Z,25.89
2017-07-09T05:13:21.888Z,25.96
2017-07-09T05:14:02.380Z,25.91
2017-07-09T05:14:42.836Z,25.89
2017-07-09T05:15:23.295Z,25.83
2017-07-09T05:16:03.758Z,25.93
2017-07-09T05:16:44.214Z,25.91
2017-07-09T05:17:24.668Z,25.91
2017-07-09T05:18:05.132Z,25.88
2017-07-09T05:18:45.584Z,25.91
2017-07-09T05:19:26.046Z,25.88
2017-07-09T05:20:06.503Z,25.95
2017-07-09T05:20:46.968Z,25.83
2017-07-09T05:21:27.426Z,25.91
2017-07-09T05:22:07.884Z,25.93
2017-07-09T05:22:48.339Z,25.93
2017-07-09T05:23:28.798Z,25.88
2017-07-09T05:24:09.250Z,25.83
2017-07-09T05:24:49.709Z,25.81
2017-07-09T05:25:30.161Z,25.93
2017-07-09T05:26:10.616Z,25.89
2017-07-09T05:26:51.088Z,25.93
2017-07-09T05:27:31.539Z,25.83
2017-07-09T05:28:12.003Z,25.83
2017-07-09T05:28:52.460Z,25.85
2017-07-09T05:31:05.513Z,25.91
2017-07-09T05:31:45.966Z,25.88
2017-07-09T05:32:26.425Z,25.85
2017-07-09T05:33:06.881Z,25.92
2017-07-09T05:33:47.337Z,25.93
2017-07-09T05:34:27.799Z,25.95
2017-07-09T05:35:08.251Z,25.89
2017-07-09T05:35:48.760Z,25.88
2017-07-09T05:36:29.165Z,25.85
2017-07-09T05:37:09.628Z,25.89
2017-07-09T05:37:50.085Z,25.92
2017-07-09T05:38:30.539Z,25.86
2017-07-09T05:39:10.989Z,25.89
2017-07-09T05:39:51.451Z,25.92
2017-07-09T05:40:31.911Z,25.92
2017-07-09T05:41:12.364Z,25.89
2017-07-09T05:41:52.819Z,25.93
2017-07-09T05:42:33.273Z,25.92
2017-07-09T05:43:13.734Z,25.86
2017-07-09T05:43:54.169Z,25.81
2017-07-09T05:44:34.626Z,25.85
2017-07-09T05:45:15.088Z,25.81
2017-07-09T05:45:55.538Z,25.85
2017-07-09T05:46:36.003Z,25.85
2017-07-09T05:47:16.479Z,25.86
2017-07-09T05:47:56.984Z,25.83
2017-07-09T05:48:37.387Z,25.95
2017-07-09T05:49:17.850Z,25.89
2017-07-09T05:49:58.310Z,25.91
2017-07-09T05:50:38.775Z,25.96
2017-07-09T05:51:19.242Z,25.96
2017-07-09T05:51:59.697Z,25.92
2017-07-09T05:52:40.156Z,25.91
2017-07-09T05:53:20.620Z,25.88
2017-07-09T05:54:01.065Z,25.98
2017-07-09T05:54:41.537Z,25.93
2017-07-09T05:55:21.996Z,25.96
2017-07-09T05:56:02.457Z,25.91
2017-07-09T05:56:42.918Z,25.92
2017-07-09T05:57:23.381Z,25.98
2017-07-09T05:58:03.831Z,25.92
2017-07-09T05:58:44.296Z,25.92
2017-07-09T05:59:24.750Z,25.99
2017-07-09T06:00:05.204Z,25.93
2017-07-09T06:00:45.660Z,25.95
2017-07-09T06:01:26.125Z,25.96
2017-07-09T06:02:06.584Z,26.01
2017-07-09T06:02:47.036Z,26.03
2017-07-09T06:03:27.491Z,26.01
2017-07-09T06:04:07.950Z,25.95
2017-07-09T06:04:48.409Z,25.98
2017-07-09T06:05:28.862Z,26.01
2017-07-09T06:06:09.315Z,25.98
2017-07-09T06:06:49.764Z,25.99
2017-07-09T06:07:30.223Z,25.88
2017-07-09T06:08:10.678Z,25.95
2017-07-09T06:08:51.128Z,25.95
2017-07-09T06:09:31.592Z,25.99
2017-07-09T06:10:12.050Z,25.95
2017-07-09T06:10:52.510Z,25.96
2017-07-09T06:11:32.966Z,25.98
2017-07-09T06:12:13.424Z,26.06
2017-07-09T06:12:53.885Z,25.96
2017-07-09T06:13:34.344Z,25.99
2017-07-09T06:14:14.812Z,25.93
2017-07-09T06:14:55.262Z,25.98
2017-07-09T06:15:35.718Z,26.06
2017-07-09T06:16:16.179Z,26.06
2017-07-09T06:16:56.634Z,26.06
2017-07-09T06:17:37.090Z,26.04
2017-07-09T06:18:17.545Z,26.06
2017-07-09T06:18:57.982Z,26.11
2017-07-09T06:19:38.438Z,25.96
2017-07-09T06:20:18.896Z,26.06
2017-07-09T06:20:59.373Z,26.03
2017-07-09T06:21:39.816Z,26.08
2017-07-09T06:22:20.278Z,26.04
2017-07-09T06:23:00.725Z,26.07
2017-07-09T06:23:41.182Z,25.98
2017-07-09T06:24:21.643Z,26.03
2017-07-09T06:25:02.097Z,26.01
2017-07-09T06:25:42.559Z,25.96
2017-07-09T06:26:23.011Z,25.98
2017-07-09T06:27:03.477Z,25.98
2017-07-09T06:27:43.936Z,25.98
2017-07-09T06:28:24.395Z,26.01
2017-07-09T06:29:04.855Z,25.98
2017-07-09T06:29:45.309Z,25.99
2017-07-09T06:30:25.770Z,26.03
2017-07-09T06:31:06.225Z,26.07
2017-07-09T06:31:46.683Z,26.08
2017-07-09T06:32:27.140Z,26.07
2017-07-09T06:33:07.599Z,26.07
2017-07-09T06:33:48.062Z,26.16
2017-07-09T06:34:28.514Z,26.16
2017-07-09T06:35:08.976Z,26.13
2017-07-09T06:35:49.435Z,26.15
2017-07-09T06:36:29.888Z,26.11
2017-07-09T06:37:10.348Z,26.16
2017-07-09T06:37:50.802Z,26.11
2017-07-09T06:38:31.267Z,26.11
2017-07-09T06:39:11.725Z,26.18
2017-07-09T06:39:52.184Z,26.22
2017-07-09T06:40:32.636Z,26.22
2017-07-09T06:41:13.096Z,26.26
2017-07-09T06:41:53.554Z,26.22
2017-07-09T06:42:34.088Z,26.27
2017-07-09T06:43:14.472Z,26.29
2017-07-09T06:43:54.932Z,26.27
2017-07-09T06:44:35.390Z,26.37
2017-07-09T06:45:15.922Z,26.39
2017-07-09T06:45:56.380Z,26.46
2017-07-09T06:46:36.838Z,26.53
2017-07-09T06:47:17.295Z,26.51
2017-07-09T06:47:57.753Z,26.53
2017-07-09T06:48:38.209Z,26.59
2017-07-09T06:49:18.668Z,26.6
2017-07-09T06:49:59.134Z,26.7
2017-07-09T06:50:39.588Z,26.68
2017-07-09T06:51:20.046Z,26.66
2017-07-09T06:52:00.500Z,26.7
2017-07-09T06:52:40.980Z,26.76
2017-07-09T06:53:21.461Z,26.82
2017-07-09T06:54:01.919Z,26.79
2017-07-09T06:54:42.385Z,26.79
2017-07-09T06:55:22.847Z,26.74
2017-07-09T06:56:03.306Z,26.78
2017-07-09T06:56:43.761Z,26.85
2017-07-09T06:57:24.217Z,26.86
2017-07-09T06:58:04.691Z,26.82
2017-07-09T06:58:45.148Z,26.76
2017-07-09T06:59:25.603Z,26.86
2017-07-09T07:00:06.059Z,26.89
2017-07-09T07:00:46.523Z,26.88
2017-07-09T07:01:27.003Z,26.86
2017-07-09T07:02:08.780Z,26.92
2017-07-09T07:02:48.974Z,26.97
2017-07-09T07:03:29.425Z,26.89
2017-07-09T07:04:09.867Z,26.96
2017-07-09T07:04:50.369Z,26.91
2017-07-09T07:05:30.822Z,26.89
2017-07-09T07:06:11.272Z,26.98
2017-07-09T07:06:51.732Z,26.98
2017-07-09T07:07:32.542Z,26.98
2017-07-09T07:08:13.007Z,27.05
2017-07-09T07:08:53.474Z,27
2017-07-09T07:09:33.928Z,27
2017-07-09T07:10:14.377Z,27.04
2017-07-09T07:10:54.826Z,27
2017-07-09T07:11:35.282Z,27.08
2017-07-09T07:12:15.720Z,27.11
2017-07-09T07:12:56.178Z,27
2017-07-09T07:13:36.642Z,27.13
2017-07-09T07:14:17.094Z,27.11
2017-07-09T07:14:58.154Z,27.13
2017-07-09T07:15:38.722Z,27.16
2017-07-09T07:16:19.181Z,27.16
2017-07-09T07:16:59.632Z,27.11
2017-07-09T07:17:40.075Z,27.19
2017-07-09T07:18:20.559Z,27.16
2017-07-09T07:19:01.041Z,27.2
2017-07-09T07:19:41.508Z,27.18
2017-07-09T07:21:54.534Z,27.19
2017-07-09T07:22:34.992Z,27.13
2017-07-09T07:23:15.452Z,27.2
2017-07-09T07:23:55.916Z,27.22
2017-07-09T07:24:36.364Z,27.22
2017-07-09T07:25:16.823Z,27.23
2017-07-09T07:25:57.281Z,27.22
2017-07-09T07:26:37.728Z,27.25
2017-07-09T07:27:18.198Z,27.23
2017-07-09T07:27:58.655Z,27.2
2017-07-09T07:28:39.134Z,27.16
2017-07-09T07:29:19.594Z,27.22
2017-07-09T07:30:00.056Z,27.25
2017-07-09T07:30:40.518Z,27.28
2017-07-09T07:31:20.967Z,27.16
2017-07-09T07:32:01.411Z,27.23
2017-07-09T07:32:41.909Z,27.18
2017-07-09T07:33:22.312Z,27.28
2017-07-09T07:34:02.770Z,27.25
2017-07-09T07:34:43.228Z,27.22
2017-07-09T07:35:23.664Z,27.35
2017-07-09T07:36:04.125Z,27.22
2017-07-09T07:36:44.598Z,27.4
2017-07-09T07:37:25.043Z,27.37
2017-07-09T07:38:05.502Z,27.3
2017-07-09T07:38:46.017Z,27.35
2017-07-09T07:39:26.418Z,27.35
2017-07-09T07:40:06.881Z,27.29
2017-07-09T07:40:47.319Z,27.3
2017-07-09T07:42:24.890Z,27.35
2017-07-09T07:43:05.350Z,27.37
2017-07-09T07:43:45.807Z,27.38
2017-07-09T07:44:26.257Z,27.4
2017-07-09T07:45:06.717Z,27.41
2017-07-09T07:45:47.181Z,27.38
2017-07-09T07:46:27.641Z,27.48
2017-07-09T07:47:08.096Z,27.41
2017-07-09T07:47:48.560Z,27.48
2017-07-09T07:48:29.009Z,27.47
2017-07-09T07:49:09.449Z,27.5
2017-07-09T07:49:49.903Z,27.43
2017-07-09T07:50:30.363Z,27.44
2017-07-09T07:51:10.810Z,27.47
2017-07-09T07:51:51.260Z,27.52
2017-07-09T07:52:31.706Z,27.44
2017-07-09T07:54:44.914Z,27.57
2017-07-09T07:55:25.357Z,27.58
2017-07-09T07:56:05.812Z,27.64
2017-07-09T07:56:46.270Z,27.66
2017-07-09T07:57:26.723Z,27.61
2017-07-09T07:58:07.181Z,27.63
2017-07-09T07:58:47.623Z,27.68
2017-07-09T07:59:28.075Z,27.66
2017-07-09T08:00:08.535Z,27.78
2017-07-09T08:00:48.997Z,27.68
2017-07-09T08:01:29.499Z,27.78
2017-07-09T08:02:09.929Z,27.75
2017-07-09T08:02:50.393Z,27.78
2017-07-09T08:03:30.846Z,27.82
2017-07-09T08:04:11.308Z,27.81
2017-07-09T08:04:51.810Z,27.85
2017-07-09T08:05:32.375Z,27.81
2017-07-09T08:06:12.815Z,27.78
2017-07-09T08:06:53.284Z,27.88
2017-07-09T08:07:33.944Z,27.88
2017-07-09T08:08:14.504Z,27.95
2017-07-09T08:08:54.962Z,27.91
2017-07-09T08:09:35.440Z,27.93
2017-07-09T08:10:15.860Z,27.94
2017-07-09T08:10:56.311Z,27.9
2017-07-09T08:11:36.770Z,28.06
2017-07-09T08:12:17.233Z,27.98
2017-07-09T08:12:57.640Z,27.97
2017-07-09T08:13:38.101Z,27.97
2017-07-09T08:14:18.544Z,28.03
2017-07-09T08:14:58.993Z,27.94
2017-07-09T08:15:39.509Z,27.98
2017-07-09T08:16:19.892Z,28.03
2017-07-09T08:17:00.352Z,27.94
2017-07-09T08:17:40.814Z,27.95
2017-07-09T08:19:53.901Z,28.12
2017-07-09T08:20:34.341Z,28
2017-07-09T08:21:14.798Z,28.19
2017-07-09T08:21:55.241Z,28.13
2017-07-09T08:22:35.723Z,28.06
2017-07-09T08:23:16.178Z,28.12
2017-07-09T08:23:56.627Z,28.13
2017-07-09T08:24:37.082Z,28.15
2017-07-09T08:25:17.542Z,28.09
2017-07-09T08:25:58.002Z,28.18
2017-07-09T08:26:39.251Z,28.13
2017-07-09T08:27:19.709Z,28.12
2017-07-09T08:28:00.165Z,28.13
2017-07-09T08:28:40.618Z,28.16
2017-07-09T08:29:21.110Z,28.15
2017-07-09T08:30:01.561Z,28.23
2017-07-09T08:30:42.019Z,28.2
2017-07-09T08:31:22.489Z,28.31
2017-07-09T08:32:02.943Z,28.2
2017-07-09T08:32:43.397Z,28.25
2017-07-09T08:33:23.862Z,28.25
2017-07-09T08:34:04.301Z,28.28
2017-07-09T08:34:44.757Z,28.22
2017-07-09T08:35:25.218Z,28.31
2017-07-09T08:36:05.683Z,28.28
2017-07-09T08:36:46.129Z,28.35
2017-07-09T08:37:26.587Z,28.38
2017-07-09T08:38:07.042Z,28.35
2017-07-09T08:38:47.489Z,28.34
2017-07-09T08:39:27.946Z,28.38
2017-07-09T08:40:08.395Z,28.37
2017-07-09T08:40:48.849Z,28.37
2017-07-09T08:41:29.301Z,28.5
2017-07-09T08:42:09.760Z,28.4
2017-07-09T08:42:50.220Z,28.5
2017-07-09T08:43:30.681Z,28.46
2017-07-09T08:44:11.146Z,28.47
2017-07-09T08:44:51.624Z,28.47
2017-07-09T08:45:32.078Z,28.56
2017-07-09T08:46:12.535Z,28.53
2017-07-09T08:46:52.997Z,28.6
2017-07-09T08:47:33.453Z,28.49
2017-07-09T08:48:13.906Z,28.53
2017-07-09T08:48:54.357Z,28.5
2017-07-09T08:49:34.819Z,28.46
2017-07-09T08:50:15.279Z,28.47